Time;durP1;ratioP1;P1;durP2;ratioP2;P2;SDS_P1;SDS_P2;PMS_P1;PMS_P2;Temp;Humidity;BMP_temperature;BMP_pressure;BME280_temperature;BME280_humidity;BME280_pressure;Samples;Min_cycle;Max_cycle;Signal;HPM_P1;HPM_P2
2021/11/26 00:03:53;;;;;;;30.27;13.70;;;;;;;2.29;83.96;99523.56;8855424;33;20269;-72
2021/11/26 00:08:56;;;;;;;39.17;15.00;;;;;;;2.30;83.81;99512.00;8839086;33;20161;-73
2021/11/26 00:14:06;;;;;;;28.83;12.88;;;;;;;2.43;83.64;99518.25;8836729;33;20193;-73
2021/11/26 00:19:11;;;;;;;26.48;11.38;;;;;;;2.10;84.75;99500.78;8836306;33;20190;-73
2021/11/26 00:24:14;;;;;;;40.58;14.82;;;;;;;2.20;84.74;99490.50;8836218;33;20349;-73
2021/11/26 00:29:17;;;;;;;44.30;15.52;;;;;;;2.24;84.77;99496.47;8836020;33;20250;-73
2021/11/26 00:34:22;;;;;;;38.22;16.73;;;;;;;2.36;84.16;99488.63;8836357;33;20189;-73
2021/11/26 00:39:25;;;;;;;42.00;17.92;;;;;;;2.36;84.65;99485.13;8835721;33;20189;-73
2021/11/26 00:44:28;;;;;;;37.85;13.90;;;;;;;2.28;84.63;99474.16;8836477;33;20196;-73
2021/11/26 00:49:32;;;;;;;45.08;19.15;;;;;;;2.30;84.67;99478.38;8835734;33;20515;-73
2021/11/26 00:54:36;;;;;;;26.83;12.65;;;;;;;2.33;83.92;99472.03;8836455;33;20193;-73
2021/11/26 00:59:39;;;;;;;42.45;15.48;;;;;;;2.50;83.62;99466.56;8810364;33;20693;-73
2021/11/26 01:04:44;;;;;;;27.55;12.05;;;;;;;2.32;84.28;99455.28;8837219;33;20197;-73
2021/11/26 01:09:47;;;;;;;35.30;14.32;;;;;;;2.42;83.55;99441.50;8836640;33;20185;-73
2021/11/26 01:14:50;;;;;;;39.88;15.55;;;;;;;2.64;82.22;99428.63;8835335;33;20217;-73
2021/11/26 01:19:55;;;;;;;52.45;17.42;;;;;;;2.57;82.51;99429.94;8835110;33;20123;-73
2021/11/26 01:24:58;;;;;;;42.30;16.58;;;;;;;2.44;82.92;99419.25;8835038;33;20277;-73
2021/11/26 01:30:05;;;;;;;27.27;12.27;;;;;;;2.17;83.43;99413.88;8835153;33;21795;-73
2021/11/26 01:35:10;;;;;;;29.85;11.80;;;;;;;2.12;83.75;99415.94;8834748;33;20272;-72
2021/11/26 01:40:14;;;;;;;44.13;18.60;;;;;;;2.09;84.03;99389.63;8808643;33;20182;-72
2021/11/26 01:45:18;;;;;;;45.67;18.23;;;;;;;2.39;82.73;99385.06;8834023;33;20178;-73
2021/11/26 01:50:23;;;;;;;48.42;18.25;;;;;;;2.17;83.71;99368.81;8808548;33;20410;-72
2021/11/26 01:55:26;;;;;;;52.28;19.35;;;;;;;2.40;82.82;99365.56;8834163;33;20194;-73
2021/11/26 02:00:33;;;;;;;56.05;21.52;;;;;;;2.25;84.02;99355.06;8833573;33;21104;-73
2021/11/26 02:05:39;;;;;;;52.42;20.83;;;;;;;2.41;83.25;99350.50;8834017;33;20340;-73
2021/11/26 02:10:43;;;;;;;62.38;24.58;;;;;;;2.26;84.18;99330.28;8834554;33;20189;-73
2021/11/26 02:15:47;;;;;;;45.88;16.10;;;;;;;2.17;84.42;99331.72;8833905;33;21966;-73
2021/11/26 02:20:52;;;;;;;61.88;23.05;;;;;;;2.37;83.83;99315.41;8833554;33;20131;-73
2021/11/26 02:25:55;;;;;;;59.30;23.23;;;;;;;2.27;83.83;99298.38;8833454;33;20190;-73
2021/11/26 02:30:59;;;;;;;54.30;19.70;;;;;;;2.32;83.24;99287.50;8832856;33;20235;-73
2021/11/26 02:36:04;;;;;;;61.38;23.42;;;;;;;2.48;82.82;99284.72;8833499;33;20139;-73
2021/11/26 02:41:07;;;;;;;51.75;20.15;;;;;;;2.40;83.14;99285.19;8807638;33;20182;-73
2021/11/26 02:46:10;;;;;;;50.58;17.13;;;;;;;2.47;83.17;99270.63;8834145;33;20262;-73
2021/11/26 02:51:15;;;;;;;70.32;26.73;;;;;;;2.60;82.64;99263.56;8838775;33;20413;-73
2021/11/26 02:56:18;;;;;;;74.68;26.88;;;;;;;2.59;83.06;99253.91;8838002;33;20284;-72
2021/11/26 03:01:21;;;;;;;79.90;27.83;;;;;;;2.53;83.40;99250.81;8838128;33;20577;-73
2021/11/26 03:06:26;;;;;;;80.03;25.10;;;;;;;2.53;83.00;99240.19;8838194;33;20239;-73
2021/11/26 03:11:29;;;;;;;74.43;27.00;;;;;;;2.64;82.62;99229.75;8838457;33;20192;-72
2021/11/26 03:16:32;;;;;;;71.43;26.02;;;;;;;2.39;83.13;99230.50;8812504;33;20234;-73
2021/11/26 03:21:36;;;;;;;85.03;26.75;;;;;;;2.62;82.54;99221.06;8837644;33;20691;-73
2021/11/26 03:26:39;;;;;;;88.50;27.10;;;;;;;2.58;82.34;99225.72;8838131;33;20161;-73
2021/11/26 03:31:42;;;;;;;74.40;24.45;;;;;;;2.46;82.89;99202.63;8812704;33;20242;-73
2021/11/26 03:36:47;;;;;;;74.15;24.27;;;;;;;2.37;82.49;99192.66;8837906;33;20607;-72
2021/11/26 03:41:50;;;;;;;67.97;22.58;;;;;;;2.66;81.44;99184.56;8837010;33;20190;-73
2021/11/26 03:46:53;;;;;;;67.15;22.85;;;;;;;2.64;81.95;99182.03;8813529;33;20236;-72
2021/11/26 03:51:57;;;;;;;75.95;24.50;;;;;;;2.52;82.49;99175.69;8837473;33;20220;-73
2021/11/26 03:57:00;;;;;;;71.65;23.42;;;;;;;2.56;82.46;99164.00;8836558;33;20167;-72
2021/11/26 04:02:04;;;;;;;62.75;23.67;;;;;;;2.50;82.73;99147.63;8836412;33;20139;-73
2021/11/26 04:07:09;;;;;;;68.38;24.52;;;;;;;2.56;82.54;99142.78;8836856;33;20177;-73
2021/11/26 04:12:13;;;;;;;63.80;22.98;;;;;;;2.51;82.57;99130.75;8836932;33;20674;-73
2021/11/26 04:17:16;;;;;;;45.10;16.70;;;;;;;2.37;82.50;99127.22;8836632;33;20258;-73
2021/11/26 04:22:20;;;;;;;61.30;20.95;;;;;;;2.28;83.01;99116.41;8835978;33;20182;-73
2021/11/26 04:27:24;;;;;;;60.40;24.73;;;;;;;2.61;81.85;99111.50;8836539;33;20241;-73
2021/11/26 04:32:27;;;;;;;55.17;20.65;;;;;;;2.43;82.29;99111.88;8835964;33;20235;-73
2021/11/26 04:37:31;;;;;;;57.25;21.85;;;;;;;2.78;81.27;99101.53;8811811;33;20433;-72
2021/11/26 04:42:35;;;;;;;56.20;20.00;;;;;;;2.55;81.89;99087.19;8837411;33;20154;-72
2021/11/26 04:47:38;;;;;;;53.83;20.42;;;;;;;2.60;81.79;99079.78;8836439;33;20589;-72
2021/11/26 04:52:43;;;;;;;49.60;20.45;;;;;;;2.57;81.98;99078.19;8811981;33;20236;-72
2021/11/26 04:57:47;;;;;;;52.97;20.08;;;;;;;2.45;82.25;99046.38;8835407;33;20190;-73
2021/11/26 05:02:50;;;;;;;60.85;22.40;;;;;;;2.68;81.95;99039.50;8835872;33;20272;-72
2021/11/26 05:07:57;;;;;;;51.85;17.95;;;;;;;2.31;82.76;99045.50;8835354;33;21630;-72
2021/11/26 05:13:00;;;;;;;52.10;20.73;;;;;;;2.55;82.36;99015.63;8835348;33;20643;-73
2021/11/26 05:18:05;;;;;;;48.53;18.63;;;;;;;2.67;81.50;99008.63;8835247;33;20182;-73
2021/11/26 05:23:10;;;;;;;42.53;19.00;;;;;;;2.59;80.99;99001.22;8834975;33;20126;-72
2021/11/26 05:28:14;;;;;;;56.55;20.17;;;;;;;2.60;80.92;98993.13;8835049;33;20242;-72
2021/11/26 05:33:17;;;;;;;45.80;16.92;;;;;;;2.82;80.28;98975.72;8835375;33;21249;-73
2021/11/26 05:38:22;;;;;;;42.85;16.98;;;;;;;2.88;79.96;98972.66;8836364;33;20618;-73
2021/11/26 05:43:25;;;;;;;49.67;18.58;;;;;;;3.05;79.39;98974.94;8847629;33;20224;-73
2021/11/26 05:48:28;;;;;;;40.78;17.27;;;;;;;2.93;79.50;98973.13;8858003;33;20197;-72
2021/11/26 05:53:32;;;;;;;35.45;14.70;;;;;;;2.75;80.06;98964.72;8814408;33;20308;-73
2021/11/26 05:58:35;;;;;;;39.45;17.73;;;;;;;2.80;80.68;98959.94;8835934;33;20153;-73
2021/11/26 06:03:39;;;;;;;41.45;17.52;;;;;;;2.65;81.90;98947.75;8835450;33;20186;-73
2021/11/26 06:08:43;;;;;;;44.80;16.70;;;;;;;2.54;82.57;98940.56;8834876;33;20273;-73
2021/11/26 06:13:46;;;;;;;48.00;20.77;;;;;;;2.61;82.65;98928.56;8810026;33;20223;-73
2021/11/26 06:18:50;;;;;;;42.78;17.35;;;;;;;2.65;82.73;98925.69;8835616;33;20251;-73
2021/11/26 06:23:54;;;;;;;43.78;15.63;;;;;;;2.38;83.39;98930.16;8809292;33;20541;-74
2021/11/26 06:28:57;;;;;;;39.95;16.48;;;;;;;2.32;83.99;98906.75;8834752;33;20178;-73
2021/11/26 06:34:01;;;;;;;39.60;16.80;;;;;;;2.27;84.07;98911.50;8834139;33;20143;-73
2021/11/26 06:39:05;;;;;;;40.45;16.20;;;;;;;2.35;84.70;98917.13;8834605;33;20276;-73
2021/11/26 06:44:09;;;;;;;37.10;16.98;;;;;;;2.43;84.96;98899.84;8834769;33;20679;-73
2021/11/26 06:49:12;;;;;;;41.83;17.65;;;;;;;2.32;85.38;98903.25;8834236;33;20301;-73
2021/11/26 06:54:16;;;;;;;41.75;16.70;;;;;;;2.16;86.48;98893.72;8833470;33;20235;-73
2021/11/26 06:59:19;;;;;;;37.40;15.90;;;;;;;2.01;87.24;98896.59;8808586;33;20296;-73
2021/11/26 07:04:23;;;;;;;40.10;17.15;;;;;;;2.20;86.68;98888.22;8834176;33;20342;-73
2021/11/26 07:09:27;;;;;;;44.10;17.55;;;;;;;2.27;86.79;98885.00;8833911;33;20218;-73
2021/11/26 07:14:30;;;;;;;45.42;18.17;;;;;;;2.31;86.73;98875.06;8833512;33;20677;-74
2021/11/26 07:19:33;;;;;;;44.78;18.40;;;;;;;2.24;86.82;98872.00;8833704;33;20132;-74
2021/11/26 07:24:38;;;;;;;41.05;16.58;;;;;;;2.29;86.84;98864.56;8833456;33;20143;-74
2021/11/26 07:29:41;;;;;;;48.20;16.13;;;;;;;2.13;87.35;98854.19;8809854;33;20186;-74
2021/11/26 07:34:44;;;;;;;40.72;16.83;;;;;;;2.30;87.20;98858.28;8778649;33;20194;-74
2021/11/26 07:39:48;;;;;;;39.30;15.73;;;;;;;2.14;87.76;98847.13;8809801;33;20540;-74
2021/11/26 07:44:51;;;;;;;22.33;11.65;;;;;;;2.08;87.71;98848.38;8804117;33;20339;-74
2021/11/26 07:49:54;;;;;;;27.38;12.98;;;;;;;1.98;88.09;98838.56;8778498;33;20630;-74
2021/11/26 07:54:59;;;;;;;35.28;14.05;;;;;;;2.22;87.50;98834.16;8778422;33;20237;-73
2021/11/26 08:00:03;;;;;;;39.03;15.40;;;;;;;2.03;88.33;98834.63;8823854;33;20214;-73
2021/11/26 08:05:13;;;;;;;36.75;16.08;;;;;;;2.31;87.62;98827.38;8837430;33;20192;-73
2021/11/26 08:10:18;;;;;;;42.20;16.73;;;;;;;2.44;87.32;98816.72;8837640;33;20148;-73
2021/11/26 08:15:21;;;;;;;45.92;16.83;;;;;;;2.23;87.94;98813.81;8837990;33;20181;-73
2021/11/26 08:20:26;;;;;;;41.42;16.80;;;;;;;2.38;87.76;98815.34;8838044;33;20577;-73
2021/11/26 08:25:30;;;;;;;40.88;18.17;;;;;;;2.45;87.72;98794.56;8813609;33;20174;-73
2021/11/26 08:30:34;;;;;;;32.55;16.60;;;;;;;2.48;87.52;98792.53;8837639;33;20211;-73
2021/11/26 08:35:37;;;;;;;34.10;15.80;;;;;;;2.39;87.58;98785.28;8838837;33;20449;-74
2021/11/26 08:40:42;;;;;;;33.88;14.75;;;;;;;2.12;88.30;98770.41;8837635;33;20147;-73
2021/11/26 08:45:45;;;;;;;31.38;14.80;;;;;;;2.19;88.17;98770.78;8837240;33;20192;-73
2021/11/26 08:50:49;;;;;;;33.75;13.80;;;;;;;2.16;87.76;98763.06;8836773;33;20276;-73
2021/11/26 08:55:54;;;;;;;29.63;13.65;;;;;;;2.21;87.63;98753.00;8836582;33;20185;-73
2021/11/26 09:00:57;;;;;;;32.10;15.85;;;;;;;2.14;87.87;98742.00;8836743;33;20153;-73
2021/11/26 09:06:01;;;;;;;29.45;12.55;;;;;;;2.13;87.68;98748.25;8818140;33;21104;-74
2021/11/26 09:11:06;;;;;;;29.77;12.85;;;;;;;2.08;87.93;98746.88;8813298;33;20233;-74
2021/11/26 09:16:09;;;;;;;31.30;12.27;;;;;;;1.89;88.53;98740.28;8835333;33;20248;-74
2021/11/26 09:21:14;;;;;;;25.05;11.93;;;;;;;1.66;89.52;98744.53;8829688;33;21632;-74
2021/11/26 09:26:18;;;;;;;30.67;14.27;;;;;;;2.00;88.95;98736.84;8834598;33;20186;-74
2021/11/26 09:31:22;;;;;;;20.17;11.52;;;;;;;1.87;88.80;98728.09;8809901;33;20273;-74
2021/11/26 09:36:27;;;;;;;21.40;9.07;;;;;;;1.61;89.49;98728.13;8809935;33;21033;-74
2021/11/26 09:41:32;;;;;;;15.60;8.55;;;;;;;1.61;89.25;98722.84;8835269;33;20246;-74
2021/11/26 09:46:38;;;;;;;21.92;10.65;;;;;;;1.91;88.34;98711.84;8835204;33;20585;-74
2021/11/26 09:51:42;;;;;;;16.52;9.48;;;;;;;2.10;88.10;98705.25;8835440;33;20662;-74
2021/11/26 09:56:46;;;;;;;25.90;11.57;;;;;;;2.14;87.85;98694.31;8834881;33;20190;-74
2021/11/26 10:01:49;;;;;;;21.05;10.93;;;;;;;2.18;87.88;98685.19;8835177;33;20178;-74
2021/11/26 10:07:02;;;;;;;22.48;12.40;;;;;;;2.17;88.17;98678.19;8835141;33;21390;-73
2021/11/26 10:12:11;;;;;;;27.23;11.48;;;;;;;2.20;87.92;98669.19;8809599;33;20239;-73
2021/11/26 10:17:17;;;;;;;18.60;9.32;;;;;;;1.99;87.51;98653.06;8808951;33;20670;-73
2021/11/26 10:22:24;;;;;;;22.05;11.20;;;;;;;2.27;88.19;98629.81;8835104;33;20225;-73
2021/11/26 10:27:39;;;;;;;23.65;11.80;;;;;;;2.46;87.66;98621.34;8809105;33;21326;-73
2021/11/26 10:32:56;;;;;;;18.25;8.35;;;;;;;2.14;87.06;98614.03;8834276;33;20573;-73
2021/11/26 10:38:03;;;;;;;17.88;9.50;;;;;;;2.23;87.29;98605.38;8835052;33;20130;-73
2021/11/26 10:43:17;;;;;;;25.17;11.77;;;;;;;2.41;86.99;98584.56;8810124;33;20145;-73
2021/11/26 10:59:29;;;;;;;13.77;7.00;;;;;;;2.52;84.83;98547.50;8833724;33;21341;-72
2021/11/26 11:04:32;;;;;;;14.40;8.48;;;;;;;2.63;84.59;98543.22;8833948;33;20181;-72
2021/11/26 11:09:41;;;;;;;13.98;8.52;;;;;;;2.37;84.81;98538.09;8837930;33;20146;-72
2021/11/26 11:14:58;;;;;;;13.88;7.10;;;;;;;2.21;85.27;98530.47;8838874;33;20254;-72
2021/11/26 11:20:06;;;;;;;15.00;9.63;;;;;;;2.11;85.39;98527.69;8863901;33;20173;-72
2021/11/26 11:25:12;;;;;;;17.05;9.93;;;;;;;2.65;84.64;98512.13;8871748;33;20271;-72
2021/11/26 11:30:17;;;;;;;18.30;10.05;;;;;;;2.54;83.94;98503.22;8845011;33;20477;-73
2021/11/26 11:35:23;;;;;;;13.48;8.13;;;;;;;2.42;83.84;98496.19;8839659;33;20185;-73
2021/11/26 11:40:29;;;;;;;16.52;9.57;;;;;;;2.87;83.35;98468.88;8838682;33;21061;-72
2021/11/26 11:45:33;;;;;;;17.63;10.45;;;;;;;2.88;83.01;98468.75;8838247;33;20193;-73
2021/11/26 11:50:48;;;;;;;15.13;8.85;;;;;;;2.68;83.45;98464.19;8839134;33;20138;-72
2021/11/26 11:55:51;;;;;;;14.93;8.65;;;;;;;2.86;83.52;98456.59;8837851;33;20208;-72
2021/11/26 12:00:56;;;;;;;14.45;8.15;;;;;;;2.78;82.77;98443.94;8837775;33;20182;-72
2021/11/26 12:06:02;;;;;;;17.67;7.63;;;;;;;2.80;81.72;98442.00;8838997;33;20639;-73
2021/11/26 12:11:05;;;;;;;10.73;6.47;;;;;;;2.66;81.58;98421.91;8805503;33;20144;-72
2021/11/26 12:16:14;;;;;;;9.57;6.35;;;;;;;2.99;81.66;98394.47;8777156;33;20179;-72
2021/11/26 12:21:20;;;;;;;8.65;5.82;;;;;;;3.02;80.26;98380.97;8778555;33;20244;-73
2021/11/26 12:26:26;;;;;;;10.68;5.55;;;;;;;3.17;78.70;98364.75;8777922;33;20206;-72
2021/11/26 12:31:34;;;;;;;11.80;5.63;;;;;;;3.27;78.54;98353.25;8778517;33;21711;-73
2021/11/26 12:36:50;;;;;;;10.10;5.75;;;;;;;3.15;77.82;98353.41;8777765;33;20140;-72
2021/11/26 12:42:01;;;;;;;11.07;5.47;;;;;;;2.70;78.67;98335.84;8777414;33;20450;-73
2021/11/26 12:47:09;;;;;;;7.85;4.68;;;;;;;3.13;77.97;98337.63;8752447;33;20167;-73
2021/11/26 12:52:15;;;;;;;7.38;4.75;;;;;;;2.85;77.15;98317.81;8777400;33;20967;-72
2021/11/26 12:57:22;;;;;;;8.88;5.30;;;;;;;3.01;77.23;98296.19;8777118;33;20187;-72
2021/11/26 13:02:30;;;;;;;12.18;5.63;;;;;;;2.90;77.32;98293.59;8856706;32;20667;-72
2021/11/26 13:07:36;;;;;;;6.88;4.85;;;;;;;2.82;77.25;98280.97;8897241;32;20264;-72
2021/11/26 13:12:42;;;;;;;4.72;3.38;;;;;;;2.87;77.16;98273.47;8896386;32;20240;-73
2021/11/26 13:17:48;;;;;;;9.10;5.18;;;;;;;2.96;77.62;98256.81;8896766;32;20249;-73
2021/11/26 13:22:54;;;;;;;8.60;5.35;;;;;;;2.88;77.32;98261.91;8895893;32;20288;-73
2021/11/26 13:28:01;;;;;;;8.55;4.75;;;;;;;2.93;76.35;98238.47;8896197;32;20189;-73
2021/11/26 13:33:16;;;;;;;8.43;5.32;;;;;;;2.96;75.41;98242.69;8895524;32;20192;-73
2021/11/26 13:38:24;;;;;;;8.50;3.92;;;;;;;2.92;75.77;98225.38;8896312;32;20206;-73
2021/11/26 13:43:31;;;;;;;10.25;5.15;;;;;;;2.81;75.24;98203.25;8895437;32;20157;-73
2021/11/26 13:48:38;;;;;;;11.30;5.20;;;;;;;2.79;74.95;98191.06;8895880;32;20308;-73
2021/11/26 13:53:42;;;;;;;9.48;4.60;;;;;;;2.58;74.46;98180.47;8841564;32;20851;-73
2021/11/26 13:58:53;;;;;;;9.48;5.75;;;;;;;2.65;74.00;98168.38;8773678;33;20186;-73
2021/11/26 14:04:01;;;;;;;8.35;5.57;;;;;;;2.59;74.50;98160.94;8774530;33;21623;-73
2021/11/26 14:09:24;;;;;;;11.30;5.78;;;;;;;2.73;75.15;98141.22;8775656;33;20186;-73
2021/11/26 14:14:28;;;;;;;13.35;6.80;;;;;;;2.75;75.70;98136.66;8775296;33;20139;-72
2021/11/26 14:19:37;;;;;;;11.27;4.75;;;;;;;2.68;75.61;98135.47;8774906;33;20139;-73
2021/11/26 14:25:04;;;;;;;13.02;6.60;;;;;;;2.68;76.48;98124.88;8810461;33;20273;-73
2021/11/26 14:30:11;;;;;;;11.25;5.88;;;;;;;2.62;75.89;98120.94;8776492;33;20146;-73
2021/11/26 14:35:16;;;;;;;9.23;5.85;;;;;;;2.68;76.37;98104.50;8797116;33;20193;-73
2021/11/26 14:40:26;;;;;;;11.35;5.65;;;;;;;2.56;76.65;98089.66;8794923;33;20193;-71
2021/11/26 14:45:36;;;;;;;9.90;4.82;;;;;;;2.43;75.92;98089.78;8813747;33;20183;-72
2021/11/26 14:50:40;;;;;;;10.32;6.13;;;;;;;2.59;75.85;98084.09;8804073;33;20177;-72
2021/11/26 14:55:44;;;;;;;9.00;5.18;;;;;;;2.33;75.50;98102.97;8820050;33;20513;-72
2021/11/26 15:00:50;;;;;;;8.52;4.85;;;;;;;2.51;75.10;98066.13;8794676;33;20437;-72
2021/11/26 15:05:55;;;;;;;5.15;3.88;;;;;;;2.43;73.90;98067.75;8814675;33;20270;-72
2021/11/26 15:10:58;;;;;;;16.13;4.68;;;;;;;2.51;73.47;98063.50;8782208;33;20255;-71
2021/11/26 15:16:01;;;;;;;8.48;4.50;;;;;;;2.53;74.01;98042.16;8811832;33;20712;-72
2021/11/26 15:21:05;;;;;;;10.55;4.57;;;;;;;2.52;73.96;98043.97;8838710;33;20746;-72
2021/11/26 15:26:08;;;;;;;8.13;4.07;;;;;;;2.40;74.45;98031.75;8782495;33;20143;-73
2021/11/26 15:31:13;;;;;;;7.90;4.93;;;;;;;2.43;73.86;98012.94;8795153;33;20273;-73
2021/11/26 15:36:18;;;;;;;5.55;3.22;;;;;;;2.40;73.25;98000.81;8817079;33;20614;-73
2021/11/26 15:41:22;;;;;;;8.88;4.10;;;;;;;2.44;73.17;97995.25;8803789;33;20227;-73
2021/11/26 15:46:25;;;;;;;7.15;3.72;;;;;;;2.47;73.17;97987.03;8841719;33;20183;-72
2021/11/26 15:51:30;;;;;;;4.57;3.10;;;;;;;2.44;72.73;97977.56;8807931;33;20209;-74
2021/11/26 15:56:33;;;;;;;5.07;3.08;;;;;;;2.30;72.53;97965.47;8822953;33;20142;-72
2021/11/26 16:01:36;;;;;;;7.25;4.20;;;;;;;2.40;72.70;97970.81;8829599;33;20698;-72
2021/11/26 16:06:41;;;;;;;9.40;3.63;;;;;;;2.42;72.60;97960.13;8838726;33;20938;-72
2021/11/26 16:11:44;;;;;;;6.82;3.83;;;;;;;2.59;72.38;97940.97;8837460;33;20496;-72
2021/11/26 16:16:47;;;;;;;8.20;3.70;;;;;;;2.42;72.46;97936.25;8828941;33;21071;-72
2021/11/26 16:21:52;;;;;;;5.53;3.95;;;;;;;2.25;73.38;97922.66;8837713;33;20284;-72
2021/11/26 16:26:56;;;;;;;5.70;3.70;;;;;;;2.24;73.91;97907.72;8812774;33;20138;-72
2021/11/26 16:32:05;;;;;;;7.18;4.18;;;;;;;2.31;73.45;97908.88;8836935;33;20182;-72
2021/11/26 16:37:14;;;;;;;5.32;4.38;;;;;;;2.29;72.37;97908.16;8836849;33;20807;-72
2021/11/26 16:42:19;;;;;;;6.38;4.53;;;;;;;2.37;71.65;97896.91;8837266;33;20238;-72
2021/11/26 16:47:22;;;;;;;5.18;4.32;;;;;;;2.40;70.76;97888.69;8837095;33;20178;-72
2021/11/26 16:52:27;;;;;;;11.02;3.70;;;;;;;2.38;71.53;97895.94;8854657;33;20174;-74
2021/11/26 16:57:31;;;;;;;6.80;2.30;;;;;;;2.21;71.74;97878.84;8871478;33;20296;-73
2021/11/26 17:02:34;;;;;;;7.47;4.15;;;;;;;2.20;72.95;97850.69;8848303;33;20611;-72
2021/11/26 17:07:39;;;;;;;6.78;4.25;;;;;;;2.04;72.70;97850.34;8811745;33;20411;-72
2021/11/26 17:12:43;;;;;;;5.68;3.58;;;;;;;1.96;72.88;97858.94;8837571;33;20166;-72
2021/11/26 17:17:46;;;;;;;5.55;3.83;;;;;;;2.03;73.05;97840.72;8811618;33;20182;-72
2021/11/26 17:22:51;;;;;;;7.68;4.35;;;;;;;2.14;73.08;97832.69;8836751;33;20235;-72
2021/11/26 17:27:54;;;;;;;5.18;3.80;;;;;;;2.20;73.74;97837.47;8836549;33;20843;-72
2021/11/26 17:32:57;;;;;;;7.28;4.65;;;;;;;1.88;73.98;97825.19;8811020;33;20251;-72
2021/11/26 17:38:01;;;;;;;4.47;3.10;;;;;;;1.98;74.76;97822.59;8835574;33;20480;-72
2021/11/26 17:43:04;;;;;;;7.45;4.15;;;;;;;1.92;75.02;97816.03;8836145;33;20181;-72
2021/11/26 17:48:07;;;;;;;6.85;4.00;;;;;;;1.88;75.99;97811.09;8836695;33;20178;-73
2021/11/26 17:53:12;;;;;;;8.32;5.50;;;;;;;1.71;77.34;97812.56;8836109;33;20726;-73
2021/11/26 17:58:15;;;;;;;4.78;4.05;;;;;;;1.67;78.82;97792.59;8810469;33;20229;-73
2021/11/26 18:03:19;;;;;;;7.75;4.70;;;;;;;1.65;79.40;97787.47;8835247;33;20181;-73
2021/11/26 18:08:24;;;;;;;9.32;5.00;;;;;;;1.39;79.96;97789.66;8835658;33;20205;-73
2021/11/26 18:13:27;;;;;;;7.68;4.53;;;;;;;1.34;80.75;97786.56;8835788;33;20181;-73
2021/11/26 18:18:30;;;;;;;8.32;4.93;;;;;;;1.36;81.58;97784.63;8834681;33;20594;-73
2021/11/26 18:23:35;;;;;;;8.15;4.88;;;;;;;1.38;81.44;97772.13;8834923;33;20791;-73
2021/11/26 18:28:38;;;;;;;10.63;5.88;;;;;;;1.42;81.79;97767.41;8835250;33;20190;-73
2021/11/26 18:33:42;;;;;;;12.27;5.15;;;;;;;1.19;82.62;97762.25;8834804;33;20275;-73
2021/11/26 18:38:49;;;;;;;7.60;4.55;;;;;;;1.23;83.12;97768.94;8809917;33;20882;-73
2021/11/26 18:43:53;;;;;;;9.07;4.78;;;;;;;1.02;83.97;97744.34;8835252;33;20433;-73
2021/11/26 18:48:56;;;;;;;8.38;4.65;;;;;;;0.86;84.37;97741.31;8834355;33;20376;-73
2021/11/26 18:54:00;;;;;;;8.98;4.85;;;;;;;0.89;85.07;97730.47;8834167;33;20436;-73
2021/11/26 18:59:04;;;;;;;7.32;4.90;;;;;;;0.90;85.56;97732.13;8834812;33;20340;-72
2021/11/26 19:04:07;;;;;;;5.60;3.90;;;;;;;0.82;85.80;97720.41;8833907;33;20289;-73
2021/11/26 19:09:12;;;;;;;8.18;4.93;;;;;;;0.90;85.92;97701.25;8833924;33;20242;-73
2021/11/26 19:14:15;;;;;;;13.82;5.88;;;;;;;0.91;85.95;97691.53;8834192;33;20146;-74
2021/11/26 19:19:19;;;;;;;11.00;6.40;;;;;;;0.96;85.78;97690.19;8834126;33;20658;-73
2021/11/26 19:24:23;;;;;;;9.25;5.00;;;;;;;0.98;86.05;97688.22;8836042;33;20682;-74
2021/11/26 19:29:26;;;;;;;12.50;5.97;;;;;;;0.75;86.13;97676.13;8836349;33;20693;-74
2021/11/26 19:34:29;;;;;;;7.32;4.32;;;;;;;0.71;86.49;97670.25;8839438;33;20154;-74
2021/11/26 19:39:34;;;;;;;6.78;4.30;;;;;;;0.66;86.23;97661.03;8839686;33;20142;-74
2021/11/26 19:44:37;;;;;;;5.90;4.20;;;;;;;0.69;86.21;97653.69;8838866;33;20738;-74
2021/11/26 19:49:40;;;;;;;12.50;7.00;;;;;;;0.68;86.52;97637.97;8814475;33;20185;-74
2021/11/26 19:54:45;;;;;;;11.02;5.75;;;;;;;0.59;86.75;97642.22;8839413;33;21634;-74
2021/11/26 19:59:48;;;;;;;10.63;6.27;;;;;;;0.70;86.65;97622.84;8838373;33;20583;-73
2021/11/26 20:04:52;;;;;;;15.20;7.47;;;;;;;0.73;86.70;97623.41;8839626;33;20428;-73
2021/11/26 20:09:56;;;;;;;10.67;5.83;;;;;;;0.82;86.51;97619.13;8838029;33;20276;-73
2021/11/26 20:14:59;;;;;;;10.23;6.97;;;;;;;0.80;86.71;97610.53;8838809;33;20576;-73
2021/11/26 20:20:03;;;;;;;10.53;6.13;;;;;;;0.93;86.41;97600.56;8813464;33;20249;-73
2021/11/26 20:25:11;;;;;;;7.50;5.13;;;;;;;0.89;85.90;97590.41;8837574;33;20135;-72
2021/11/26 20:30:17;;;;;;;9.63;6.25;;;;;;;0.87;86.06;97592.34;8837160;33;20205;-73
2021/11/26 20:35:41;;;;;;;9.47;6.17;;;;;;;1.04;85.65;97589.94;8837778;33;20151;-73
2021/11/26 20:40:45;;;;;;;10.75;6.10;;;;;;;1.21;85.71;97582.34;8836530;33;20182;-74
2021/11/26 20:45:49;;;;;;;8.98;5.55;;;;;;;1.25;85.55;97578.44;8811151;33;20150;-73
2021/11/26 20:50:52;;;;;;;11.30;6.18;;;;;;;1.27;85.11;97571.22;8802993;33;20197;-73
2021/11/26 20:55:57;;;;;;;10.20;5.70;;;;;;;1.32;84.63;97571.66;8807945;33;20233;-73
2021/11/26 21:01:01;;;;;;;9.05;5.13;;;;;;;1.32;83.88;97561.09;8807575;33;20177;-73
2021/11/26 21:06:05;;;;;;;7.72;4.53;;;;;;;1.38;83.57;97557.06;8805828;33;20613;-73
2021/11/26 21:11:10;;;;;;;5.70;4.10;;;;;;;1.38;83.16;97549.13;8789208;33;20567;-73
2021/11/26 21:16:13;;;;;;;7.45;4.43;;;;;;;1.45;83.26;97542.31;8751489;33;20188;-74
2021/11/26 21:21:20;;;;;;;5.57;4.55;;;;;;;1.28;83.45;97536.69;8776615;33;20266;-73
2021/11/26 21:26:29;;;;;;;4.53;3.17;;;;;;;1.31;83.36;97540.03;8777040;33;20496;-73
2021/11/26 21:31:33;;;;;;;4.53;3.58;;;;;;;1.25;83.45;97526.38;8776561;33;20525;-72
2021/11/26 21:36:37;;;;;;;6.78;3.92;;;;;;;1.26;83.47;97521.94;8776593;33;21211;-73
2021/11/26 21:41:42;;;;;;;7.68;4.03;;;;;;;1.09;83.89;97525.22;8776352;33;20577;-73
2021/11/26 21:46:46;;;;;;;4.55;3.50;;;;;;;0.93;84.59;97533.66;8776363;33;20603;-74
2021/11/26 21:51:51;;;;;;;4.47;3.63;;;;;;;0.82;85.21;97530.16;8774793;33;20586;-73
2021/11/26 21:56:56;;;;;;;7.30;4.43;;;;;;;0.96;85.53;97530.75;8775346;33;20242;-73
2021/11/26 22:02:03;;;;;;;5.05;4.00;;;;;;;0.78;85.48;97527.91;8774874;33;20189;-73
2021/11/26 22:07:06;;;;;;;6.50;4.10;;;;;;;0.49;86.19;97531.22;8776146;33;20522;-74
2021/11/26 22:12:12;;;;;;;4.82;3.80;;;;;;;0.55;85.95;97528.06;8775410;33;20897;-73
2021/11/26 22:17:16;;;;;;;7.73;4.63;;;;;;;0.42;86.58;97522.16;8774894;33;20612;-73
2021/11/26 22:22:19;;;;;;;7.80;5.22;;;;;;;0.34;86.75;97524.59;8773765;33;20260;-73
2021/11/26 22:27:24;;;;;;;8.85;5.93;;;;;;;0.31;87.01;97525.69;8805492;33;20186;-74
2021/11/26 22:32:27;;;;;;;11.32;6.97;;;;;;;0.24;86.77;97521.88;8802181;33;20218;-74
2021/11/26 22:37:30;;;;;;;9.37;6.17;;;;;;;0.10;86.68;97519.56;8804807;33;20182;-74
2021/11/26 22:42:35;;;;;;;11.30;7.45;;;;;;;-0.05;86.93;97508.50;8776853;33;20635;-74
2021/11/26 22:47:39;;;;;;;21.87;12.03;;;;;;;0.01;87.51;97509.81;8833401;33;20190;-74
2021/11/26 22:52:43;;;;;;;12.57;7.03;;;;;;;0.11;88.11;97498.34;8845563;33;20167;-74
2021/11/26 22:57:47;;;;;;;12.60;7.37;;;;;;;0.29;87.91;97503.03;8865075;33;20400;-74
2021/11/26 23:02:55;;;;;;;14.13;8.00;;;;;;;0.31;88.18;97499.31;8837295;33;21572;-74
2021/11/26 23:07:58;;;;;;;11.43;7.13;;;;;;;0.33;88.24;97499.16;8814046;33;20471;-73
2021/11/26 23:13:04;;;;;;;14.07;8.50;;;;;;;0.47;88.43;97493.56;8838602;33;20186;-74
2021/11/26 23:18:08;;;;;;;14.43;8.48;;;;;;;0.49;88.16;97494.25;8839097;33;20150;-73
2021/11/26 23:23:16;;;;;;;15.10;8.43;;;;;;;0.42;88.37;97490.47;8837905;33;20182;-73
2021/11/26 23:28:24;;;;;;;15.57;8.43;;;;;;;0.56;88.25;97494.56;8812853;33;20186;-73
2021/11/26 23:33:29;;;;;;;15.97;8.70;;;;;;;0.58;88.32;97487.34;8838334;33;20150;-73
2021/11/26 23:38:32;;;;;;;14.40;7.68;;;;;;;0.57;88.23;97483.03;8812733;33;20266;-72
2021/11/26 23:43:37;;;;;;;16.83;8.93;;;;;;;0.55;88.42;97474.38;8838126;33;20443;-72
2021/11/26 23:48:41;;;;;;;14.68;7.82;;;;;;;0.59;88.39;97467.88;8837617;33;20639;-75
2021/11/26 23:54:06;;;;;;;14.57;8.15;;;;;;;0.67;88.39;97465.41;8837433;32;20669;-73
2021/11/26 23:59:10;;;;;;;16.00;9.43;;;;;;;0.69;88.05;97457.38;8836815;33;20174;-72
